createdAt,value
2017-09-03T00:01:01.544Z,26.4
2017-09-03T00:02:03.318Z,26.3
2017-09-03T00:03:05.445Z,26.3
2017-09-03T00:04:06.882Z,26.3
2017-09-03T00:05:07.995Z,26.3
2017-09-03T00:06:10.122Z,26.4
2017-09-03T00:07:12.252Z,26.3
2017-09-03T00:08:13.710Z,26.3
2017-09-03T00:09:14.482Z,26.3
2017-09-03T00:10:16.256Z,26.3
2017-09-03T00:11:17.692Z,26.3
2017-09-03T00:12:19.154Z,26.3
2017-09-03T00:13:20.945Z,26.3
2017-09-03T00:14:23.078Z,26.3
2017-09-03T00:15:25.207Z,26.4
2017-09-03T00:16:27.001Z,26.3
2017-09-03T00:17:28.438Z,26.3
2017-09-03T00:18:29.900Z,26.3
2017-09-03T00:19:32.032Z,26.3
2017-09-03T00:20:33.473Z,26.3
2017-09-03T00:21:35.266Z,26.3
2017-09-03T00:22:37.395Z,26.3
2017-09-03T00:23:39.529Z,26.3
2017-09-03T00:24:41.657Z,26.3
2017-09-03T00:25:43.813Z,26.3
2017-09-03T00:26:45.610Z,26.3
2017-09-03T00:27:47.380Z,26.4
2017-09-03T00:28:48.150Z,26.3
2017-09-03T00:29:49.598Z,26.4
2017-09-03T00:30:51.374Z,26.4
2017-09-03T00:31:53.501Z,26.3
2017-09-03T00:32:55.296Z,26.3
2017-09-03T00:33:56.065Z,26.3
2017-09-03T00:34:57.546Z,26.4
2017-09-03T00:35:58.321Z,26.3
2017-09-03T00:37:00.104Z,26.4
2017-09-03T00:38:01.565Z,26.3
2017-09-03T00:39:03.337Z,26.3
2017-09-03T00:40:05.133Z,26.3
2017-09-03T00:41:05.902Z,26.3
2017-09-03T00:42:07.007Z,26.4
2017-09-03T00:43:09.139Z,26.3
2017-09-03T00:44:11.269Z,26.3
2017-09-03T00:45:13.398Z,26.3
2017-09-03T00:46:14.502Z,26.3
2017-09-03T00:47:16.632Z,26.3
2017-09-03T00:48:18.426Z,26.3
2017-09-03T00:49:20.556Z,26.3
2017-09-03T00:50:22.351Z,26.2
2017-09-03T00:51:23.808Z,26.3
2017-09-03T00:52:25.268Z,26.2
2017-09-03T00:53:26.708Z,26.3
2017-09-03T00:54:28.166Z,26.3
2017-09-03T00:55:29.269Z,26.3
2017-09-03T00:56:30.727Z,26.2
2017-09-03T00:57:32.861Z,26.2
2017-09-03T00:58:34.988Z,26.2
2017-09-03T00:59:37.131Z,26.3
2017-09-03T01:00:39.259Z,26.2
2017-09-03T01:01:41.056Z,26.3
2017-09-03T01:02:43.201Z,26.3
2017-09-03T01:03:44.309Z,26.2
2017-09-03T01:04:45.746Z,26.3
2017-09-03T01:05:47.540Z,26.2
2017-09-03T01:06:49.369Z,26.2
2017-09-03T01:07:51.501Z,26.2
2017-09-03T01:08:52.962Z,26.2
2017-09-03T01:09:54.757Z,26.2
2017-09-03T01:10:56.554Z,26.2
2017-09-03T01:11:58.346Z,26.2
2017-09-03T01:12:59.787Z,26.2
2017-09-03T01:14:01.594Z,26.2
2017-09-03T01:15:03.724Z,26.3
2017-09-03T01:16:05.166Z,26.2
2017-09-03T01:17:07.293Z,26.2
2017-09-03T01:18:08.756Z,26.2
2017-09-03T01:19:10.883Z,26.2
2017-09-03T01:20:13.014Z,26.3
2017-09-03T01:21:15.142Z,26.3
2017-09-03T01:22:16.943Z,26.2
2017-09-03T01:23:19.069Z,26.2
2017-09-03T01:24:20.868Z,26.3
2017-09-03T01:25:21.990Z,26.3
2017-09-03T01:26:23.447Z,26.2
2017-09-03T01:27:25.242Z,26.2
2017-09-03T01:28:26.707Z,26.3
2017-09-03T01:29:28.497Z,26.3
2017-09-03T01:30:30.293Z,26.3
2017-09-03T01:31:32.087Z,26.3
2017-09-03T01:32:34.272Z,26.3
2017-09-03T01:33:36.065Z,26.2
2017-09-03T01:34:37.523Z,26.2
2017-09-03T01:35:39.664Z,26.2
2017-09-03T01:36:41.462Z,26.3
2017-09-03T01:37:43.587Z,26.2
2017-09-03T01:38:45.385Z,26.3
2017-09-03T01:39:46.827Z,26.2
2017-09-03T01:40:48.649Z,26.2
2017-09-03T01:41:50.441Z,26.2
2017-09-03T01:42:52.238Z,26.3
2017-09-03T01:43:53.675Z,26.2
2017-09-03T01:44:55.473Z,26.3
2017-09-03T01:45:57.602Z,26.2
2017-09-03T01:46:59.040Z,26.2
2017-09-03T01:48:00.835Z,26.2
2017-09-03T01:49:02.293Z,26.2
2017-09-03T01:50:04.074Z,26.2
2017-09-03T01:51:05.869Z,26.2
2017-09-03T01:52:06.974Z,26.2
2017-09-03T01:53:09.102Z,26.2
2017-09-03T01:54:11.235Z,26.2
2017-09-03T01:55:13.006Z,26.2
2017-09-03T01:56:14.443Z,26.2
2017-09-03T01:57:15.902Z,26.2
2017-09-03T01:58:17.392Z,26.2
2017-09-03T01:59:19.187Z,26.2
2017-09-03T02:00:20.626Z,26.2
2017-09-03T02:01:22.418Z,26.2
2017-09-03T02:02:24.215Z,26.2
2017-09-03T02:03:26.341Z,26.2
2017-09-03T02:04:28.134Z,26.2
2017-09-03T02:05:29.931Z,26.2
2017-09-03T02:06:32.062Z,26.2
2017-09-03T02:07:33.856Z,26.2
2017-09-03T02:08:35.982Z,26.2
2017-09-03T02:09:37.765Z,26.2
2017-09-03T02:10:38.871Z,26.2
2017-09-03T02:11:41.002Z,26.2
2017-09-03T02:12:42.797Z,26.2
2017-09-03T02:13:44.925Z,26.2
2017-09-03T02:14:46.719Z,26.2
2017-09-03T02:15:48.846Z,26.1
2017-09-03T02:16:50.644Z,26.2
2017-09-03T02:17:52.439Z,26.2
2017-09-03T02:18:54.234Z,26.2
2017-09-03T02:19:56.009Z,26.2
2017-09-03T02:20:57.805Z,26.2
2017-09-03T02:21:59.934Z,26.2
2017-09-03T02:23:01.398Z,26.2
2017-09-03T02:24:03.215Z,26.2
2017-09-03T02:25:04.675Z,26.2
2017-09-03T02:26:06.472Z,26.1
2017-09-03T02:27:08.269Z,26.2
2017-09-03T02:28:10.390Z,26.2
2017-09-03T02:29:11.851Z,26.2
2017-09-03T02:30:13.982Z,26.1
2017-09-03T02:31:15.443Z,26.2
2017-09-03T02:32:17.574Z,26.1
2017-09-03T02:33:19.702Z,26.2
2017-09-03T02:34:21.832Z,26.1
2017-09-03T02:35:23.291Z,26.1
2017-09-03T02:36:25.088Z,26.2
2017-09-03T02:37:26.528Z,26.2
2017-09-03T02:38:28.325Z,26.1
2017-09-03T02:39:29.426Z,26.1
2017-09-03T02:40:30.196Z,26.1
2017-09-03T02:41:32.332Z,26.1
2017-09-03T02:42:34.132Z,26.1
2017-09-03T02:43:35.239Z,26.1
2017-09-03T02:44:37.031Z,26.3
2017-09-03T02:45:38.468Z,26.2
2017-09-03T02:46:39.905Z,26.1
2017-09-03T02:47:42.034Z,26.1
2017-09-03T02:48:43.497Z,26.1
2017-09-03T02:49:45.314Z,26.1
2017-09-03T02:50:47.442Z,26.1
2017-09-03T02:51:49.223Z,26.3
2017-09-03T02:52:51.346Z,26.2
2017-09-03T02:53:53.139Z,26.3
2017-09-03T02:54:54.936Z,26.1
2017-09-03T02:55:56.730Z,26.1
2017-09-03T02:56:58.859Z,26.1
2017-09-03T02:58:00.652Z,26.1
2017-09-03T02:59:02.426Z,26.2
2017-09-03T03:00:04.244Z,26.1
2017-09-03T03:01:06.038Z,26.1
2017-09-03T03:02:07.831Z,26.1
2017-09-03T03:03:09.603Z,26.2
2017-09-03T03:04:11.377Z,26.1
2017-09-03T03:05:12.481Z,26.2
2017-09-03T03:06:14.611Z,26.1
2017-09-03T03:07:16.388Z,26.2
2017-09-03T03:08:18.518Z,26.3
2017-09-03T03:09:19.977Z,26.1
2017-09-03T03:10:22.130Z,26.1
2017-09-03T03:11:23.914Z,26.2
2017-09-03T03:12:25.703Z,26.2
2017-09-03T03:13:27.486Z,26.2
2017-09-03T03:14:29.615Z,26.2
2017-09-03T03:15:31.408Z,26.2
2017-09-03T03:16:32.870Z,26.2
2017-09-03T03:17:34.641Z,26.2
2017-09-03T03:18:36.434Z,26.2
2017-09-03T03:19:38.229Z,26.2
2017-09-03T03:20:40.359Z,26.2
2017-09-03T03:21:42.489Z,26.3
2017-09-03T03:22:44.262Z,26
2017-09-03T03:23:46.059Z,26.2
2017-09-03T03:24:47.499Z,26.2
2017-09-03T03:25:48.644Z,26.1
2017-09-03T03:26:50.438Z,26.1
2017-09-03T03:27:52.212Z,26.2
2017-09-03T03:28:54.342Z,26.1
2017-09-03T03:29:55.801Z,26.2
2017-09-03T03:30:57.260Z,26.2
2017-09-03T03:31:59.388Z,26.2
2017-09-03T03:33:01.517Z,26.1
2017-09-03T03:34:03.315Z,26.2
2017-09-03T03:35:04.757Z,26.1
2017-09-03T03:36:05.525Z,26
2017-09-03T03:37:07.318Z,26.1
2017-09-03T03:38:09.115Z,26.2
2017-09-03T03:39:11.247Z,26.1
2017-09-03T03:40:13.043Z,26.1
2017-09-03T03:41:14.834Z,26.2
2017-09-03T03:42:16.648Z,26.2
2017-09-03T03:43:18.445Z,26.2
2017-09-03T03:44:19.906Z,26.2
2017-09-03T03:45:21.029Z,26.1
2017-09-03T03:46:22.132Z,26.2
2017-09-03T03:47:23.933Z,26.2
2017-09-03T03:48:25.729Z,26.1
2017-09-03T03:49:27.520Z,26
2017-09-03T03:50:29.316Z,26.2
2017-09-03T03:51:31.113Z,26.1
2017-09-03T03:52:32.572Z,26.2
2017-09-03T03:53:34.347Z,26.1
2017-09-03T03:54:36.178Z,26.2
2017-09-03T03:55:37.969Z,26.2
2017-09-03T03:56:39.742Z,26.2
2017-09-03T03:57:41.873Z,26.2
2017-09-03T03:58:43.668Z,26.1
2017-09-03T03:59:45.796Z,26.1
2017-09-03T04:00:47.233Z,26.1
2017-09-03T04:01:49.361Z,26.1
2017-09-03T04:02:51.490Z,26.2
2017-09-03T04:03:52.953Z,26.1
2017-09-03T04:04:54.744Z,26.2
2017-09-03T04:05:56.539Z,26.1
2017-09-03T04:06:58.668Z,26.1
2017-09-03T04:08:00.462Z,26.1
2017-09-03T04:09:02.229Z,26.2
2017-09-03T04:10:03.689Z,26.1
2017-09-03T04:11:05.461Z,26.1
2017-09-03T04:12:07.587Z,26
2017-09-03T04:13:08.691Z,26.1
2017-09-03T04:14:10.821Z,26.1
2017-09-03T04:15:12.947Z,26.1
2017-09-03T04:16:14.742Z,26.1
2017-09-03T04:17:16.537Z,26
2017-09-03T04:18:18.351Z,26
2017-09-03T04:19:20.481Z,26.1
2017-09-03T04:20:22.333Z,26.1
2017-09-03T04:21:23.793Z,26.1
2017-09-03T04:22:25.267Z,26.1
2017-09-03T04:23:27.040Z,26.1
2017-09-03T04:24:28.835Z,26.1
2017-09-03T04:25:30.297Z,26.1
2017-09-03T04:26:32.092Z,26.1
2017-09-03T04:27:33.886Z,26
2017-09-03T04:28:34.985Z,26
2017-09-03T04:29:36.779Z,26.1
2017-09-03T04:30:38.906Z,26.1
2017-09-03T04:31:41.033Z,26
2017-09-03T04:32:43.166Z,26.2
2017-09-03T04:33:44.963Z,26.1
2017-09-03T04:34:47.095Z,26.1
2017-09-03T04:35:48.892Z,26
2017-09-03T04:36:50.689Z,26.1
2017-09-03T04:37:52.144Z,26.1
2017-09-03T04:38:53.606Z,26
2017-09-03T04:39:55.735Z,26.1
2017-09-03T04:40:57.863Z,26
2017-09-03T04:41:59.640Z,26
2017-09-03T04:43:01.438Z,26
2017-09-03T04:44:03.567Z,26
2017-09-03T04:45:05.362Z,26.1
2017-09-03T04:46:07.162Z,26
2017-09-03T04:47:09.292Z,26
2017-09-03T04:48:11.091Z,26
2017-09-03T04:49:12.884Z,26.1
2017-09-03T04:50:14.678Z,26
2017-09-03T04:51:16.814Z,26
2017-09-03T04:52:18.940Z,26
2017-09-03T04:53:20.047Z,26
2017-09-03T04:54:21.484Z,26
2017-09-03T04:55:22.607Z,26.1
2017-09-03T04:56:24.404Z,26
2017-09-03T04:57:25.864Z,26.1
2017-09-03T04:58:27.659Z,26
2017-09-03T04:59:29.814Z,26
2017-09-03T05:00:31.939Z,26.1
2017-09-03T05:01:34.084Z,26
2017-09-03T05:02:35.876Z,26.1
2017-09-03T05:03:38.007Z,26
2017-09-03T05:04:39.517Z,26
2017-09-03T05:05:41.314Z,26
2017-09-03T05:06:43.106Z,26
2017-09-03T05:07:44.900Z,26
2017-09-03T05:08:46.675Z,26.1
2017-09-03T05:09:48.474Z,26
2017-09-03T05:10:50.271Z,26
2017-09-03T05:11:52.068Z,26.1
2017-09-03T05:12:53.860Z,26
2017-09-03T05:13:55.657Z,26.1
2017-09-03T05:14:57.786Z,26
2017-09-03T05:15:59.584Z,26
2017-09-03T05:17:01.712Z,26.1
2017-09-03T05:18:03.170Z,26
2017-09-03T05:19:04.611Z,26.1
2017-09-03T05:20:06.398Z,26
2017-09-03T05:21:07.504Z,26
2017-09-03T05:22:09.281Z,26
2017-09-03T05:23:11.082Z,26
2017-09-03T05:24:12.522Z,26
2017-09-03T05:25:13.984Z,26
2017-09-03T05:26:16.118Z,26
2017-09-03T05:27:17.579Z,26.1
2017-09-03T05:28:19.716Z,26
2017-09-03T05:29:21.845Z,26
2017-09-03T05:30:23.976Z,26
2017-09-03T05:31:25.781Z,26
2017-09-03T05:32:27.207Z,26
2017-09-03T05:33:28.642Z,26
2017-09-03T05:34:30.782Z,26
2017-09-03T05:35:32.544Z,26
2017-09-03T05:36:34.338Z,26.1
2017-09-03T05:37:36.568Z,26.1
2017-09-03T05:38:38.015Z,26.1
2017-09-03T05:39:39.811Z,26.2
2017-09-03T05:40:41.270Z,26
2017-09-03T05:41:43.402Z,26
2017-09-03T05:42:45.535Z,26
2017-09-03T05:43:47.669Z,26
2017-09-03T05:44:49.799Z,26
2017-09-03T05:45:51.595Z,26
2017-09-03T05:46:53.390Z,26
2017-09-03T05:47:55.185Z,26.1
2017-09-03T05:48:56.984Z,26
2017-09-03T05:49:59.110Z,26.1
2017-09-03T05:51:00.549Z,26
2017-09-03T05:52:02.680Z,26
2017-09-03T05:53:03.813Z,26
2017-09-03T05:54:04.916Z,26
2017-09-03T05:55:06.363Z,26.1
2017-09-03T05:56:07.472Z,26
2017-09-03T05:57:09.266Z,26.1
2017-09-03T05:58:10.701Z,26
2017-09-03T05:59:12.496Z,26
2017-09-03T06:00:14.632Z,26.1
2017-09-03T06:01:16.762Z,26
2017-09-03T06:02:18.895Z,26
2017-09-03T06:03:21.020Z,26
2017-09-03T06:04:22.145Z,26
2017-09-03T06:05:24.274Z,26
2017-09-03T06:06:26.068Z,26
2017-09-03T06:07:27.528Z,26
2017-09-03T06:08:28.990Z,26
2017-09-03T06:09:30.765Z,26
2017-09-03T06:10:32.229Z,26
2017-09-03T06:11:34.018Z,26.1
2017-09-03T06:12:35.817Z,26.1
2017-09-03T06:13:37.276Z,26.1
2017-09-03T06:14:38.741Z,26
2017-09-03T06:15:40.536Z,26
2017-09-03T06:16:42.332Z,26.1
2017-09-03T06:17:44.460Z,26
2017-09-03T06:18:46.255Z,26.1
2017-09-03T06:19:48.052Z,26
2017-09-03T06:20:50.182Z,26.1
2017-09-03T06:21:51.993Z,26
2017-09-03T06:22:53.785Z,26.1
2017-09-03T06:23:55.577Z,26.1
2017-09-03T06:24:57.727Z,26
2017-09-03T06:25:59.169Z,26
2017-09-03T06:27:00.942Z,26
2017-09-03T06:28:02.737Z,26
2017-09-03T06:29:04.196Z,26
2017-09-03T06:30:05.989Z,26.1
2017-09-03T06:31:07.819Z,26
2017-09-03T06:32:09.612Z,26
2017-09-03T06:33:11.062Z,26.1
2017-09-03T06:34:12.840Z,26.1
2017-09-03T06:35:14.615Z,26.1
2017-09-03T06:36:16.417Z,26
2017-09-03T06:37:17.879Z,26.2
2017-09-03T06:38:19.653Z,26.1
2017-09-03T06:39:21.447Z,26.1
2017-09-03T06:40:23.245Z,26
2017-09-03T06:41:25.374Z,26
2017-09-03T06:42:27.170Z,26
2017-09-03T06:43:28.633Z,26.1
2017-09-03T06:44:30.405Z,26
2017-09-03T06:45:31.847Z,26
2017-09-03T06:46:33.315Z,26
2017-09-03T06:47:34.754Z,26.1
2017-09-03T06:48:36.884Z,26.1
2017-09-03T06:49:38.677Z,26.1
2017-09-03T06:50:40.114Z,26
2017-09-03T06:51:41.224Z,26.2
2017-09-03T06:52:42.659Z,26.1
2017-09-03T06:53:44.118Z,26.1
2017-09-03T06:54:46.244Z,26.1
2017-09-03T06:55:47.683Z,26
2017-09-03T06:56:49.841Z,26
2017-09-03T06:57:51.974Z,26
2017-09-03T06:58:53.766Z,26.1
2017-09-03T06:59:55.564Z,26.1
2017-09-03T07:00:57.358Z,26.1
2017-09-03T07:01:59.490Z,26.2
2017-09-03T07:03:01.266Z,26.1
2017-09-03T07:04:03.066Z,26.1
2017-09-03T07:05:04.861Z,26.1
2017-09-03T07:06:05.966Z,26.1
2017-09-03T07:07:07.773Z,26.1
2017-09-03T07:08:09.548Z,26.1
2017-09-03T07:09:11.678Z,26.1
2017-09-03T07:10:13.808Z,26
2017-09-03T07:11:15.936Z,26.1
2017-09-03T07:12:17.732Z,26.1
2017-09-03T07:13:19.529Z,26.1
2017-09-03T07:14:21.310Z,26.1
2017-09-03T07:15:23.433Z,26.1
2017-09-03T07:16:25.563Z,26.1
2017-09-03T07:17:27.361Z,26.1
2017-09-03T07:18:28.801Z,26.1
2017-09-03T07:19:30.579Z,26.1
2017-09-03T07:20:32.371Z,26.1
2017-09-03T07:21:33.818Z,26.1
2017-09-03T07:22:35.608Z,26
2017-09-03T07:23:36.717Z,26.1
2017-09-03T07:24:38.522Z,26.2
2017-09-03T07:25:40.321Z,26.1
2017-09-03T07:26:42.116Z,26.1
2017-09-03T07:27:43.576Z,26.2
2017-09-03T07:28:45.707Z,26.2
2017-09-03T07:29:46.838Z,26.2
2017-09-03T07:30:48.636Z,26.2
2017-09-03T07:31:49.737Z,26.1
2017-09-03T07:32:51.533Z,26.2
2017-09-03T07:33:53.330Z,26.2
2017-09-03T07:34:54.765Z,26.2
2017-09-03T07:35:56.895Z,26.2
2017-09-03T07:36:58.687Z,26.1
2017-09-03T07:38:00.485Z,26.1
2017-09-03T07:39:02.615Z,26.1
2017-09-03T07:40:04.411Z,26.1
2017-09-03T07:41:05.516Z,26.2
2017-09-03T07:42:07.650Z,26.1
2017-09-03T07:43:09.423Z,26.1
2017-09-03T07:44:11.550Z,26.2
2017-09-03T07:45:13.679Z,26.1
2017-09-03T07:46:15.116Z,26.2
2017-09-03T07:47:16.910Z,26.2
2017-09-03T07:48:18.370Z,26.2
2017-09-03T07:49:20.142Z,26.2
2017-09-03T07:50:21.916Z,26.2
2017-09-03T07:51:24.045Z,26.1
2017-09-03T07:52:26.169Z,26.2
2017-09-03T07:53:27.621Z,26.2
2017-09-03T07:54:29.746Z,26.2
2017-09-03T07:55:31.544Z,26.2
2017-09-03T07:56:33.005Z,26.2
2017-09-03T07:57:34.798Z,26.2
2017-09-03T07:58:36.928Z,26.2
2017-09-03T07:59:38.724Z,26.1
2017-09-03T08:00:40.159Z,26.1
2017-09-03T08:01:41.941Z,26.2
2017-09-03T08:02:43.731Z,26.2
2017-09-03T08:03:45.864Z,26.1
2017-09-03T08:04:47.660Z,26.2
2017-09-03T08:05:49.441Z,26.1
2017-09-03T08:06:50.950Z,26.2
2017-09-03T08:07:52.391Z,26.2
2017-09-03T08:08:54.519Z,26.1
2017-09-03T08:09:56.327Z,26.2
2017-09-03T08:10:58.456Z,26.2
2017-09-03T08:12:00.586Z,26.1
2017-09-03T08:13:02.048Z,26.2
2017-09-03T08:14:03.510Z,26.2
2017-09-03T08:15:05.640Z,26.2
2017-09-03T08:16:07.100Z,26.2
2017-09-03T08:17:08.899Z,26.2
2017-09-03T08:18:10.362Z,26.2
2017-09-03T08:19:11.825Z,26.2
2017-09-03T08:20:13.288Z,26.2
2017-09-03T08:21:15.065Z,26.2
2017-09-03T08:22:16.857Z,26.2
2017-09-03T08:23:18.659Z,26.2
2017-09-03T08:24:20.119Z,26.2
2017-09-03T08:25:21.578Z,26.3
2017-09-03T08:26:23.040Z,26.3
2017-09-03T08:27:24.146Z,26.2
2017-09-03T08:28:25.942Z,26.2
2017-09-03T08:29:28.076Z,26.2
2017-09-03T08:30:29.871Z,26.3
2017-09-03T08:31:31.647Z,26.3
2017-09-03T08:32:33.106Z,26.2
2017-09-03T08:33:33.877Z,26.3
2017-09-03T08:34:35.346Z,26.3
2017-09-03T08:35:36.810Z,26.3
2017-09-03T08:36:38.273Z,26.3
2017-09-03T08:37:39.714Z,26.3
2017-09-03T08:38:41.511Z,26.3
2017-09-03T08:39:42.978Z,26.3
2017-09-03T08:40:44.776Z,26.3
2017-09-03T08:41:46.567Z,26.3
2017-09-03T08:42:48.058Z,26.3
2017-09-03T08:43:49.858Z,26.3
2017-09-03T08:44:51.322Z,26.4
2017-09-03T08:45:52.783Z,26.4
2017-09-03T08:46:54.249Z,26.3
2017-09-03T08:47:55.733Z,26.3
2017-09-03T08:48:57.529Z,26.3
2017-09-03T08:49:59.331Z,26.3
2017-09-03T08:51:01.110Z,26.3
2017-09-03T08:52:02.884Z,26.3
2017-09-03T08:53:03.992Z,26.3
2017-09-03T08:54:05.787Z,26.4
2017-09-03T08:55:06.890Z,26.4
2017-09-03T08:56:09.028Z,26.4
2017-09-03T08:57:10.482Z,26.3
2017-09-03T08:58:12.280Z,26.3
2017-09-03T08:59:14.073Z,26.4
2017-09-03T09:00:15.871Z,26.4
2017-09-03T09:01:17.337Z,26.4
2017-09-03T09:02:19.468Z,26.4
2017-09-03T09:03:21.255Z,26.4
2017-09-03T09:04:23.054Z,26.4
2017-09-03T09:05:24.828Z,26.4
2017-09-03T09:06:26.605Z,26.4
2017-09-03T09:07:28.403Z,26.4
2017-09-03T09:08:30.532Z,26.4
2017-09-03T09:09:31.974Z,26.4
2017-09-03T09:10:33.771Z,26.4
2017-09-03T09:11:35.592Z,26.5
2017-09-03T09:12:37.080Z,26.4
2017-09-03T09:13:39.208Z,26.4
2017-09-03T09:14:40.674Z,26.4
2017-09-03T09:15:42.113Z,26.4
2017-09-03T09:16:44.244Z,26.5
2017-09-03T09:17:45.703Z,26.5
2017-09-03T09:18:47.829Z,26.4
2017-09-03T09:19:49.605Z,26.4
2017-09-03T09:20:51.737Z,26.4
2017-09-03T09:21:53.196Z,26.4
2017-09-03T09:22:54.652Z,26.5
2017-09-03T09:23:56.790Z,26.4
2017-09-03T09:24:58.251Z,26.4
2017-09-03T09:26:00.383Z,26.4
2017-09-03T09:27:01.863Z,26.4
2017-09-03T09:28:03.987Z,26.5
2017-09-03T09:29:05.806Z,26.4
2017-09-03T09:30:07.938Z,26.4
2017-09-03T09:31:10.069Z,26.5
2017-09-03T09:32:11.864Z,26.5
2017-09-03T09:33:13.661Z,26.5
2017-09-03T09:34:15.456Z,26.5
2017-09-03T09:35:17.254Z,26.4
2017-09-03T09:36:18.719Z,26.5
2017-09-03T09:37:20.497Z,26.5
2017-09-03T09:38:21.937Z,26.5
2017-09-03T09:39:23.729Z,26.4
2017-09-03T09:40:25.866Z,26.4
2017-09-03T09:41:27.993Z,26.4
2017-09-03T09:42:29.789Z,26.4
2017-09-03T09:43:31.914Z,26.4
2017-09-03T09:44:33.729Z,26.5
2017-09-03T09:45:35.861Z,26.5
2017-09-03T09:46:37.304Z,26.5
2017-09-03T09:47:39.076Z,26.5
2017-09-03T09:48:40.924Z,26.4
2017-09-03T09:49:42.723Z,26.5
2017-09-03T09:50:44.521Z,26.5
2017-09-03T09:51:45.650Z,26.5
2017-09-03T09:52:47.782Z,26.5
2017-09-03T09:53:49.631Z,26.6
2017-09-03T09:54:51.766Z,26.6
2017-09-03T09:55:53.561Z,26.6
2017-09-03T09:56:55.690Z,26.5
2017-09-03T09:57:57.152Z,26.5
2017-09-03T09:58:58.616Z,26.5
2017-09-03T10:00:00.746Z,26.5
2017-09-03T10:01:02.877Z,26.5
2017-09-03T10:02:04.342Z,26.6
2017-09-03T10:03:05.782Z,26.6
2017-09-03T10:04:07.244Z,26.5
2017-09-03T10:05:09.376Z,26.5
2017-09-03T10:06:11.154Z,26.5
2017-09-03T10:07:12.610Z,26.5
2017-09-03T10:08:14.419Z,26.5
2017-09-03T10:09:15.889Z,26.6
2017-09-03T10:10:17.685Z,26.6
2017-09-03T10:11:19.493Z,26.6
2017-09-03T10:12:21.623Z,26.6
2017-09-03T10:13:23.752Z,26.6
2017-09-03T10:14:25.549Z,26.6
2017-09-03T10:15:27.352Z,26.6
2017-09-03T10:16:29.133Z,26.6
2017-09-03T10:17:30.907Z,26.6
2017-09-03T10:18:32.350Z,26.6
2017-09-03T10:19:34.125Z,26.6
2017-09-03T10:20:35.567Z,26.6
2017-09-03T10:21:37.339Z,26.6
2017-09-03T10:22:38.451Z,26.6
2017-09-03T10:23:39.567Z,26.7
2017-09-03T10:24:41.699Z,26.6
2017-09-03T10:25:43.161Z,26.7
2017-09-03T10:26:44.961Z,26.6
2017-09-03T10:27:47.090Z,26.6
2017-09-03T10:28:48.526Z,26.7
2017-09-03T10:29:50.655Z,26.7
2017-09-03T10:30:52.121Z,26.6
2017-09-03T10:31:54.254Z,26.6
2017-09-03T10:32:55.690Z,26.7
2017-09-03T10:33:57.822Z,26.7
2017-09-03T10:34:59.954Z,26.6
2017-09-03T10:36:01.402Z,26.7
2017-09-03T10:37:03.205Z,26.7
2017-09-03T10:38:04.314Z,26.6
2017-09-03T10:39:05.755Z,26.6
2017-09-03T10:40:07.194Z,26.6
2017-09-03T10:41:08.636Z,26.7
2017-09-03T10:42:10.078Z,26.6
2017-09-03T10:43:11.850Z,26.6
2017-09-03T10:44:13.982Z,26.6
2017-09-03T10:45:16.110Z,26.7
2017-09-03T10:46:17.550Z,26.7
2017-09-03T10:47:18.675Z,26.7
2017-09-03T10:48:20.113Z,26.7
2017-09-03T10:49:21.935Z,26.6
2017-09-03T10:50:24.061Z,26.7
2017-09-03T10:51:25.548Z,26.6
2017-09-03T10:52:27.009Z,26.7
2017-09-03T10:53:29.140Z,26.6
2017-09-03T10:54:30.606Z,26.7
2017-09-03T10:55:32.737Z,26.7
2017-09-03T10:56:34.529Z,26.6
2017-09-03T10:57:36.311Z,26.6
2017-09-03T10:58:38.445Z,26.6
2017-09-03T10:59:40.243Z,26.7
2017-09-03T11:00:41.709Z,26.6
2017-09-03T11:01:42.477Z,26.7
2017-09-03T11:02:44.275Z,26.7
2017-09-03T11:03:45.728Z,26.7
2017-09-03T11:04:47.503Z,26.6
2017-09-03T11:05:49.293Z,26.7
2017-09-03T11:06:51.076Z,26.7
2017-09-03T11:07:52.538Z,26.7
2017-09-03T11:08:53.992Z,26.6
2017-09-03T11:09:55.788Z,26.7
2017-09-03T11:10:57.613Z,26.7
2017-09-03T11:11:59.406Z,26.7
2017-09-03T11:13:01.187Z,26.7
2017-09-03T11:14:02.650Z,26.6
2017-09-03T11:15:04.444Z,26.7
2017-09-03T11:16:06.573Z,26.7
2017-09-03T11:17:08.373Z,26.8
2017-09-03T11:18:10.165Z,26.7
2017-09-03T11:19:11.276Z,26.7
2017-09-03T11:20:13.056Z,26.7
2017-09-03T11:21:15.183Z,26.7
2017-09-03T11:22:17.320Z,26.7
2017-09-03T11:23:19.095Z,26.7
2017-09-03T11:24:20.199Z,26.6
2017-09-03T11:25:22.000Z,26.7
2017-09-03T11:26:23.441Z,26.7
2017-09-03T11:27:25.574Z,26.7
2017-09-03T11:28:27.035Z,26.8
2017-09-03T11:29:28.817Z,26.8
2017-09-03T11:30:30.591Z,26.7
2017-09-03T11:31:32.386Z,26.8
2017-09-03T11:32:34.519Z,26.7
2017-09-03T11:33:36.650Z,26.8
2017-09-03T11:34:38.431Z,26.8
2017-09-03T11:35:40.204Z,26.8
2017-09-03T11:36:41.670Z,26.8
2017-09-03T11:37:43.468Z,26.8
2017-09-03T11:38:45.244Z,26.7
2017-09-03T11:39:47.373Z,26.7
2017-09-03T11:40:48.834Z,26.8
2017-09-03T11:41:50.607Z,26.8
2017-09-03T11:42:52.069Z,26.8
2017-09-03T11:43:54.201Z,26.8
2017-09-03T11:44:56.012Z,26.8
2017-09-03T11:45:57.494Z,26.7
2017-09-03T11:46:58.266Z,26.7
2017-09-03T11:48:00.399Z,26.8
2017-09-03T11:49:02.225Z,26.7
2017-09-03T11:50:04.023Z,26.7
2017-09-03T11:51:05.486Z,26.8
2017-09-03T11:52:06.592Z,26.8
2017-09-03T11:53:08.721Z,26.7
2017-09-03T11:54:10.518Z,26.8
2017-09-03T11:55:11.682Z,26.8
2017-09-03T11:56:13.141Z,26.8
2017-09-03T11:57:14.938Z,26.9
2017-09-03T11:58:16.401Z,26.8
2017-09-03T11:59:17.860Z,26.8
2017-09-03T12:00:19.636Z,26.9
2017-09-03T12:01:21.449Z,26.9
2017-09-03T12:02:22.914Z,26.9
2017-09-03T12:03:24.382Z,26.9
2017-09-03T12:04:25.842Z,26.8
2017-09-03T12:05:27.639Z,26.9
2017-09-03T12:06:29.084Z,26.9
2017-09-03T12:07:31.213Z,26.9
2017-09-03T12:08:33.006Z,26.9
2017-09-03T12:09:35.137Z,26.9
2017-09-03T12:10:36.933Z,26.9
2017-09-03T12:11:38.732Z,26.9
2017-09-03T12:12:40.225Z,26.9
2017-09-03T12:13:41.359Z,26.9
2017-09-03T12:14:42.461Z,26.9
2017-09-03T12:15:43.589Z,26.9
2017-09-03T12:16:45.385Z,26.9
2017-09-03T12:17:47.163Z,26.9
2017-09-03T12:18:48.265Z,26.9
2017-09-03T12:19:50.044Z,26.9
2017-09-03T12:20:51.507Z,26.9
2017-09-03T12:21:53.637Z,26.9
2017-09-03T12:22:55.436Z,26.9
2017-09-03T12:23:56.550Z,26.9
2017-09-03T12:24:58.346Z,26.9
2017-09-03T12:26:00.143Z,26.9
2017-09-03T12:27:01.940Z,26.9
2017-09-03T12:28:03.737Z,26.9
2017-09-03T12:29:05.538Z,26.9
2017-09-03T12:30:07.335Z,26.9
2017-09-03T12:31:09.111Z,26.9
2017-09-03T12:32:11.247Z,26.9
2017-09-03T12:33:12.686Z,26.9
2017-09-03T12:34:14.465Z,26.9
2017-09-03T12:35:15.909Z,26.9
2017-09-03T12:36:18.058Z,26.9
2017-09-03T12:37:19.828Z,26.9
2017-09-03T12:38:21.726Z,26.9
2017-09-03T12:39:23.518Z,27
2017-09-03T12:40:25.654Z,26.9
2017-09-03T12:41:26.778Z,26.9
2017-09-03T12:42:28.576Z,26.9
2017-09-03T12:43:30.430Z,26.9
2017-09-03T12:44:31.890Z,26.9
2017-09-03T12:45:33.355Z,26.9
2017-09-03T12:46:34.460Z,27
2017-09-03T12:47:36.590Z,26.9
2017-09-03T12:48:38.721Z,27
2017-09-03T12:49:40.493Z,27
2017-09-03T12:50:42.289Z,27
2017-09-03T12:51:44.086Z,27
2017-09-03T12:52:45.882Z,27
2017-09-03T12:53:47.680Z,27
2017-09-03T12:54:49.478Z,27
2017-09-03T12:55:51.274Z,27
2017-09-03T12:56:53.053Z,27
2017-09-03T12:57:55.184Z,26.9
2017-09-03T12:58:56.629Z,27
2017-09-03T12:59:58.761Z,27
2017-09-03T13:01:00.560Z,27
2017-09-03T13:02:02.024Z,26.9
2017-09-03T13:03:03.464Z,27
2017-09-03T13:04:05.259Z,27
2017-09-03T13:05:06.727Z,27
2017-09-03T13:06:08.193Z,27
2017-09-03T13:07:10.321Z,27
2017-09-03T13:08:12.117Z,27
2017-09-03T13:09:13.576Z,27.1
2017-09-03T13:10:15.350Z,27
2017-09-03T13:11:16.811Z,27
2017-09-03T13:12:18.257Z,27
2017-09-03T13:13:20.389Z,27
2017-09-03T13:14:22.164Z,27.1
2017-09-03T13:15:24.300Z,27
2017-09-03T13:16:25.745Z,27
2017-09-03T13:17:27.878Z,27
2017-09-03T13:18:30.009Z,26.9
2017-09-03T13:19:31.471Z,27
2017-09-03T13:20:32.911Z,27
2017-09-03T13:21:35.047Z,27
2017-09-03T13:22:37.180Z,27
2017-09-03T13:23:38.975Z,27
2017-09-03T13:24:40.439Z,27
2017-09-03T13:25:42.570Z,27
2017-09-03T13:26:43.682Z,27
2017-09-03T13:27:44.795Z,27
2017-09-03T13:28:46.256Z,27
2017-09-03T13:29:48.030Z,27
2017-09-03T13:30:50.162Z,27
2017-09-03T13:31:51.960Z,27
2017-09-03T13:32:54.096Z,27
2017-09-03T13:33:55.871Z,27
2017-09-03T13:34:58.016Z,27.1
2017-09-03T13:35:59.124Z,27
2017-09-03T13:37:00.923Z,27
2017-09-03T13:38:03.052Z,27
2017-09-03T13:39:04.850Z,27
2017-09-03T13:40:06.293Z,27
2017-09-03T13:41:08.421Z,27
2017-09-03T13:42:10.199Z,27
2017-09-03T13:43:11.974Z,27
2017-09-03T13:44:13.769Z,27
2017-09-03T13:45:15.216Z,27
2017-09-03T13:46:16.678Z,27.1
2017-09-03T13:47:18.811Z,27
2017-09-03T13:48:19.920Z,26.9
2017-09-03T13:49:22.049Z,27
2017-09-03T13:50:23.824Z,27
2017-09-03T13:51:25.268Z,27
2017-09-03T13:52:26.397Z,27
2017-09-03T13:53:27.533Z,27